Cherry Brook, Connecticut
Current Conditions -  °F | °C
As of 10:51 AM on Sunday 25 Jan 2015 (Local Time) from KBDL Reporting Station
Scattered Clouds Scattered Clouds  
Wind Chill: 24°   Ceiling: Unl
Heat Index: 35°   Visibility: 10mi
Dew Point: 19°   Wind: 21mph
Humidity: 52%   Direction: 310°NW
Pressure: 29.69"   Gusts: 28mph
Location:  41.8586°N, 72.9136°W
Report Text: KBDL 251551Z 31018G24KT 10SM SCT045 02/M07 A2969 RMK AO2 SLP055 T00171072 $
Loading
Personal Weather Stations






























Interactive Weather Map New forecast layout! Learn more

10-Day Weather Forecast

Advertisements
Track Severe Weather on mobile